.
WxDataArchive / Data Records for 2007-05-06
2007-05-05 May 2007 2007-05-07

Data Records for Sunday, 06 May 2007

Time	Temp	Chill	HIndex	Humid	Dewpt	 Wind 	HiWind	WindDir	Rain 	Barom 
-----	----	-----	------	-----	-----	------	------	-------	-----	----- 
00:00	52.9	52.9	52.9	56	37.6	4	11	112	0.00	30.248 
00:05	52.8	52.8	52.8	57	38.0	3	7	112	0.00	30.251 
00:10	52.6	52.6	52.6	58	38.2	2	6	90	0.00	30.252 
00:15	52.3	52.3	52.3	59	38.4	1	5	90	0.00	30.252 
00:20	52.0	52.0	52.0	60	38.5	1	6	112	0.00	30.252 
00:25	51.7	51.7	51.7	62	39.1	1	3	90	0.00	30.252 
00:30	51.4	51.4	51.4	62	38.8	1	4	90	0.00	30.252 
00:35	51.1	51.1	51.1	63	38.9	0	2	112	0.00	30.255 
00:40	50.8	50.8	50.8	64	39.1	0	3	112	0.00	30.256 
00:45	50.5	50.5	50.5	65	39.2	1	2	112	0.00	30.257 
00:50	50.2	50.2	50.2	65	38.9	1	2	112	0.00	30.261 
00:55	50.1	50.1	50.1	65	38.8	0	2	90	0.00	30.265 
01:00	49.9	49.9	49.9	65	38.6	0	2	90	0.00	30.267 
01:05	49.8	49.8	49.8	64	38.1	1	4	90	0.00	30.271 
01:10	49.8	49.8	49.8	64	38.1	0	3	112	0.00	30.273 
01:15	49.6	49.6	49.6	63	37.5	0	3	112	0.00	30.275 
01:20	49.5	49.5	49.5	62	37.0	0	2	112	0.00	30.275 
01:25	49.4	49.4	49.4	62	36.9	0	1	112	0.00	30.277 
01:30	49.1	49.1	49.1	63	37.1	0	1	112	0.00	30.276 
01:35	48.8	48.8	48.8	63	36.8	0	1	112	0.00	30.279 
01:40	48.5	48.5	48.5	63	36.5	0	1	112	0.00	30.279 
01:45	48.3	48.3	48.3	62	35.9	1	4	158	0.00	30.276 
01:50	48.3	48.3	48.3	61	35.5	1	3	135	0.00	30.282 
01:55	48.3	48.3	48.3	61	35.5	1	2	112	0.00	30.282 
02:00	48.3	48.3	48.3	60	35.1	1	4	112	0.00	30.281 
02:05	48.3	48.3	48.3	61	35.5	1	4	112	0.00	30.283 
02:10	48.3	48.3	48.3	60	35.1	1	6	112	0.00	30.281 
02:15	48.2	48.2	48.2	60	35.0	1	4	112	0.00	30.280 
02:20	48.2	48.2	48.2	60	35.0	1	4	135	0.00	30.278 
02:25	48.0	48.0	48.0	61	35.2	1	3	135	0.00	30.281 
02:30	47.7	47.7	47.7	61	34.9	1	4	90	0.00	30.285 
02:35	47.4	47.4	47.4	61	34.6	1	5	90	0.00	30.288 
02:40	47.3	47.3	47.3	61	34.5	1	2	112	0.00	30.290 
02:45	47.1	47.1	47.1	62	34.8	1	5	112	0.00	30.290 
02:50	47.0	47.0	47.0	62	34.7	2	5	112	0.00	30.288 
02:55	46.8	46.8	46.8	62	34.5	2	7	112	0.00	30.286 
03:00	46.8	46.8	46.8	62	34.5	2	5	112	0.00	30.286 
03:05	46.5	46.5	46.5	62	34.2	2	5	90	0.00	30.287 
03:10	46.5	46.5	46.5	63	34.6	2	6	90	0.00	30.284 
03:15	46.2	46.2	46.2	64	34.7	1	3	90	0.00	30.285 
03:20	46.1	46.1	46.1	64	34.6	2	5	90	0.00	30.287 
03:25	46.0	46.0	46.0	64	34.5	1	4	90	0.00	30.288 
03:30	46.0	46.0	46.0	64	34.5	1	3	112	0.00	30.288 
03:35	45.8	45.8	45.8	65	34.7	2	9	90	0.00	30.288 
03:40	45.7	45.7	45.7	65	34.6	2	5	112	0.00	30.283 
03:45	45.5	45.5	45.5	65	34.4	2	8	112	0.00	30.280 
03:50	45.4	45.4	45.4	65	34.3	3	10	90	0.00	30.282 
03:55	45.1	45.1	45.1	65	34.0	3	9	112	0.00	30.281 
04:00	44.9	44.9	44.9	66	34.2	3	7	112	0.00	30.280 
04:05	44.6	44.6	44.6	66	34.0	3	5	112	0.00	30.278 
04:10	44.3	44.3	44.3	67	34.0	2	4	112	0.00	30.276 
04:15	44.2	44.2	44.2	67	33.9	2	4	90	0.00	30.275 
04:20	44.1	44.1	44.1	67	33.9	3	5	112	0.00	30.274 
04:25	44.1	44.1	44.1	67	33.9	3	6	112	0.00	30.267 
04:30	43.9	43.9	43.9	67	33.7	3	6	112	0.00	30.265 
04:35	43.9	43.9	43.9	67	33.7	3	6	112	0.00	30.262 
04:40	43.8	43.8	43.8	68	33.9	3	6	112	0.00	30.260 
04:45	43.8	41.7	43.8	67	33.6	4	8	112	0.00	30.259 
04:50	43.8	43.8	43.8	67	33.6	3	7	112	0.00	30.263 
04:55	43.6	43.6	43.6	66	33.0	2	6	112	0.00	30.271 
05:00	43.6	43.6	43.6	66	33.0	3	6	112	0.00	30.272 
05:05	43.6	43.6	43.6	65	32.6	3	5	112	0.00	30.273 
05:10	43.8	43.8	43.8	64	32.4	2	7	90	0.00	30.276 
05:15	44.1	44.1	44.1	63	32.3	2	5	90	0.00	30.284 
05:20	44.2	44.2	44.2	62	32.0	3	5	112	0.00	30.289 
05:25	44.5	44.5	44.5	61	31.9	3	5	90	0.00	30.291 
05:30	44.8	44.8	44.8	59	31.4	3	5	112	0.00	30.291 
05:35	45.1	43.2	45.1	58	31.2	4	7	90	0.00	30.292 
05:40	45.4	45.4	45.4	57	31.1	3	8	90	0.00	30.292 
05:45	45.8	43.3	45.8	55	30.6	5	11	112	0.00	30.291 
05:50	46.7	43.7	46.7	52	30.0	6	14	112	0.00	30.294 
05:55	47.1	43.7	47.1	51	29.9	7	13	90	0.00	30.292 
06:00	47.3	43.9	47.3	50	29.6	7	18	90	0.00	30.293 
06:05	47.6	44.8	47.6	50	29.9	6	13	90	0.00	30.304 
06:10	47.7	44.4	47.7	51	30.5	7	14	112	0.00	30.308 
06:15	47.9	45.8	47.9	50	30.2	5	12	112	0.00	30.319 
06:20	47.9	45.8	47.9	50	30.2	5	10	112	0.00	30.323 
06:25	48.0	45.9	48.0	50	30.3	5	13	90	0.00	30.327 
06:30	48.0	45.9	48.0	50	30.3	5	9	90	0.00	30.336 
06:35	48.3	46.9	48.3	51	31.0	4	10	90	0.00	30.342 
06:40	48.5	46.5	48.5	49	30.2	5	13	112	0.00	30.352 
06:45	48.6	46.6	48.6	49	30.3	5	12	90	0.00	30.353 
06:50	48.8	46.2	48.8	49	30.5	6	10	90	0.00	30.354 
06:55	49.1	46.6	49.1	48	30.3	6	11	90	0.00	30.356 
07:00	49.2	46.2	49.2	48	30.4	7	13	112	0.00	30.365 
07:05	49.5	47.6	49.5	48	30.6	5	11	90	0.00	30.368 
07:10	49.8	48.0	49.8	46	29.9	5	12	112	0.00	30.371 
07:15	50.2	50.2	50.2	45	29.7	5	11	90	0.00	30.374 
07:20	50.4	50.4	50.4	45	29.9	6	13	90	0.00	30.382 
07:25	50.8	50.8	50.8	43	29.1	4	11	112	0.00	30.382 
07:30	51.1	51.1	51.1	44	30.0	6	13	112	0.00	30.382 
07:35	51.4	51.4	51.4	42	29.1	6	15	112	0.00	30.384 
07:40	51.7	51.7	51.7	39	27.6	5	14	112	0.00	30.388 
07:45	52.0	52.0	52.0	40	28.4	5	12	90	0.00	30.390 
07:50	52.3	52.3	52.3	39	28.1	6	13	90	0.00	30.385 
07:55	52.5	52.5	52.5	38	27.6	7	14	90	0.00	30.381 
08:00	52.6	52.6	52.6	38	27.7	8	16	90	0.00	30.375 
08:05	52.9	52.9	52.9	37	27.3	7	12	112	0.00	30.367 
08:10	53.1	53.1	53.1	35	26.2	8	22	112	0.00	30.367 
08:15	53.5	53.5	53.5	35	26.5	5	10	112	0.00	30.367 
08:20	54.1	54.1	54.1	37	28.4	5	18	90	0.00	30.365 
08:25	54.1	54.1	54.1	35	27.1	6	14	112	0.00	30.365 
08:30	53.6	53.6	53.6	32	24.5	10	18	112	0.00	30.368 
08:35	53.6	53.6	53.6	31	23.7	10	19	112	0.00	30.371 
08:40	53.6	53.6	53.6	34	25.9	8	15	112	0.00	30.375 
08:45	53.9	53.9	53.9	33	25.5	8	16	112	0.00	30.377 
08:50	54.2	54.2	54.2	35	27.2	7	16	90	0.00	30.382 
08:55	54.7	54.7	54.7	32	25.4	6	12	112	0.00	30.386 
09:00	55.1	55.1	55.1	30	24.2	7	16	112	0.00	30.391 
09:05	55.1	55.1	55.1	28	22.6	9	18	112	0.00	30.391 
09:10	55.1	55.1	55.1	28	22.6	8	14	90	0.00	30.397 
09:15	55.6	55.6	55.6	29	23.9	7	14	90	0.00	30.400 
09:20	55.3	55.3	55.3	29	23.6	9	16	112	0.00	30.399 
09:25	55.4	55.4	55.4	28	22.8	8	15	90	0.00	30.403 
09:30	55.7	55.7	55.7	29	23.9	7	13	90	0.00	30.405 
09:35	55.9	55.9	55.9	28	23.3	8	17	90	0.00	30.402 
09:40	56.0	56.0	56.0	27	22.5	7	15	90	0.00	30.400 
09:45	56.3	56.3	56.3	29	24.5	6	12	112	0.00	30.398 
09:50	56.5	56.5	56.5	30	25.4	7	13	90	0.00	30.394 
09:55	56.2	56.2	56.2	28	23.5	10	15	112	0.00	30.390 
10:00	56.5	56.5	56.5	29	24.6	7	15	112	0.00	30.385 
10:05	56.5	56.5	56.5	27	22.9	9	18	90	0.00	30.387 
10:10	56.7	56.7	56.7	27	23.1	8	14	112	0.00	30.384 
10:15	57.2	57.2	57.2	29	25.2	6	14	112	0.00	30.380 
10:20	57.6	57.6	57.6	31	27.2	6	17	90	0.00	30.380 
10:25	57.6	57.6	57.6	28	24.7	9	17	90	0.00	30.383 
10:30	58.1	58.1	58.1	27	24.3	7	14	90	0.00	30.384 
10:35	58.4	58.4	58.4	28	25.4	6	14	112	0.00	30.389 
10:40	58.4	58.4	58.4	27	24.6	8	16	112	0.00	30.394 
10:45	58.3	58.3	58.3	27	24.5	8	17	90	0.00	30.393 
10:50	58.1	58.1	58.1	27	24.3	9	19	112	0.00	30.391 
10:55	58.4	58.4	58.4	28	25.4	8	18	112	0.00	30.395 
11:00	59.0	59.0	59.0	27	25.1	6	11	90	0.00	30.393 
11:05	59.0	59.0	59.0	28	25.9	9	15	90	0.00	30.395 
11:10	59.3	59.3	59.3	27	25.3	7	15	90	0.00	30.387 
11:15	59.5	59.5	59.5	25	23.7	9	19	90	0.00	30.384 
11:20	59.2	59.2	59.2	27	25.2	9	17	90	0.00	30.385 
11:25	59.8	59.8	59.8	26	24.9	7	20	112	0.00	30.386 
11:30	59.9	59.9	59.9	28	26.7	7	14	90	0.00	30.390 
11:35	59.9	59.9	59.9	28	26.7	6	14	90	0.00	30.387 
11:40	60.5	60.5	60.5	24	23.5	7	15	90	0.00	30.389 
11:45	60.1	60.1	60.1	26	25.1	9	14	112	0.00	30.384 
11:50	60.5	60.5	60.5	28	27.2	6	13	112	0.00	30.384 
11:55	61.2	61.2	61.2	27	27.0	7	16	112	0.00	30.380 
12:00	61.3	61.3	61.3	29	28.8	6	16	90	0.00	30.375 
12:05	61.3	61.3	61.3	24	24.2	9	17	112	0.00	30.368 
12:10	61.2	61.2	61.2	28	27.8	8	19	90	0.00	30.369 
12:15	61.3	61.3	61.3	28	27.9	7	13	112	0.00	30.367 
12:20	61.2	61.2	61.2	25	25.1	10	15	112	0.00	30.365 
12:25	61.5	61.5	61.5	25	25.4	7	14	112	0.00	30.365 
12:30	61.8	61.8	61.8	25	25.6	7	14	90	0.00	30.358 
12:35	61.6	61.6	61.6	24	24.5	9	18	90	0.00	30.354 
12:40	61.5	61.5	61.5	26	26.3	9	17	112	0.00	30.355 
12:45	61.8	61.8	61.8	27	27.5	8	16	112	0.00	30.351 
12:50	62.3	62.3	62.3	27	27.9	6	14	112	0.00	30.349 
12:55	62.0	62.0	62.0	26	26.7	9	16	112	0.00	30.350 
13:00	62.6	62.6	62.6	28	29.0	5	11	90	0.00	30.352 
13:05	62.7	62.7	62.7	30	30.8	7	17	90	0.00	30.354 
13:10	62.4	62.4	62.4	28	28.9	7	16	90	0.00	30.356 
13:15	62.7	62.7	62.7	26	27.3	6	12	112	0.00	30.351 
13:20	62.9	62.9	62.9	25	26.5	7	13	112	0.00	30.351 
13:25	62.7	62.7	62.7	27	28.2	8	15	112	0.00	30.351 
13:30	63.1	63.1	63.1	27	28.6	5	14	90	0.00	30.352 
13:35	63.4	63.4	63.4	25	27.0	7	13	112	0.00	30.352 
13:40	63.9	63.9	63.9	23	25.4	6	13	112	0.00	30.349 
13:45	63.5	63.5	63.5	26	28.0	6	12	112	0.00	30.349 
13:50	63.5	63.5	63.5	26	28.0	8	15	112	0.00	30.349 
13:55	63.9	63.9	63.9	25	27.4	6	15	112	0.00	30.345 
14:00	63.7	63.7	63.7	25	27.2	7	14	90	0.00	30.346 
14:05	63.7	63.7	63.7	26	28.2	6	14	90	0.00	30.347 
14:10	63.9	63.9	63.9	26	28.3	6	14	112	0.00	30.344 
14:15	64.2	64.2	64.2	27	29.5	5	15	112	0.00	30.338 
14:20	64.0	64.0	64.0	26	28.4	4	10	112	0.00	30.335 
14:25	63.7	63.7	63.7	24	26.2	7	15	90	0.00	30.335 
14:30	63.5	63.5	63.5	29	30.7	5	11	112	0.00	30.332 
14:35	63.9	63.9	63.9	26	28.3	6	12	112	0.00	30.331 
14:40	63.5	63.5	63.5	24	26.1	7	16	112	0.00	30.325 
14:45	63.2	63.2	63.2	26	27.7	7	12	112	0.00	30.321 
14:50	63.7	63.7	63.7	27	29.1	5	12	112	0.00	30.319 
14:55	63.2	63.2	63.2	25	26.8	6	13	90	0.00	30.321 
15:00	63.4	63.4	63.4	23	25.0	6	16	112	0.00	30.322 
15:05	63.2	63.2	63.2	24	25.8	7	14	112	0.00	30.320 
15:10	63.2	63.2	63.2	24	25.8	6	15	112	0.00	30.320 
15:15	63.5	63.5	63.5	23	25.0	5	11	112	0.00	30.321 
15:20	63.2	63.2	63.2	25	26.8	6	12	112	0.00	30.320 
15:25	63.7	63.7	63.7	26	28.2	5	10	112	0.00	30.317 
15:30	63.9	63.9	63.9	25	27.4	6	12	112	0.00	30.316 
15:35	63.5	63.5	63.5	28	29.8	6	13	112	0.00	30.312 
15:40	63.2	63.2	63.2	25	26.8	6	12	112	0.00	30.313 
15:45	62.6	62.6	62.6	27	28.2	5	14	112	0.00	30.315 
15:50	62.7	62.7	62.7	27	28.2	6	14	112	0.00	30.316 
15:55	62.7	62.7	62.7	27	28.2	6	12	112	0.00	30.312 
16:00	62.6	62.6	62.6	26	27.2	5	12	112	0.00	30.310 
16:05	62.6	62.6	62.6	28	29.0	5	10	112	0.00	30.320 
16:10	62.6	62.6	62.6	28	29.0	7	14	112	0.00	30.312 
16:15	62.4	62.4	62.4	28	28.9	5	11	112	0.00	30.316 
16:20	62.3	62.3	62.3	30	30.5	6	15	90	0.00	30.321 
16:25	62.0	62.0	62.0	28	28.5	6	12	112	0.00	30.320 
16:30	61.6	61.6	61.6	29	29.0	5	15	90	0.00	30.313 
16:35	61.6	61.6	61.6	31	30.7	5	12	112	0.00	30.312 
16:40	61.2	61.2	61.2	31	30.3	5	11	112	0.00	30.315 
16:45	60.7	60.7	60.7	28	27.4	6	12	90	0.00	30.319 
16:50	60.7	60.7	60.7	32	30.7	4	11	112	0.00	30.324 
16:55	60.4	60.4	60.4	31	29.6	5	13	112	0.00	30.323 
17:00	60.1	60.1	60.1	32	30.1	4	10	90	0.00	30.323 
17:05	59.8	59.8	59.8	32	29.9	3	10	90	0.00	30.322 
17:10	59.8	59.8	59.8	35	32.1	3	7	90	0.00	30.321 
17:15	59.6	59.6	59.6	35	31.9	4	10	112	0.00	30.323 
17:20	59.6	59.6	59.6	33	30.5	4	10	90	0.00	30.325 
17:25	59.5	59.5	59.5	35	31.8	6	14	90	0.00	30.323 
17:30	59.3	59.3	59.3	34	30.9	5	10	90	0.00	30.318 
17:35	59.3	59.3	59.3	35	31.7	5	11	112	0.00	30.321 
17:40	59.0	59.0	59.0	36	32.1	5	11	112	0.00	30.319 
17:45	58.7	58.7	58.7	36	31.8	4	10	112	0.00	30.318 
17:50	58.6	58.6	58.6	38	33.1	2	6	90	0.00	30.320 
17:55	58.4	58.4	58.4	39	33.5	4	14	112	0.00	30.316 
18:00	58.4	58.4	58.4	37	32.2	4	10	112	0.00	30.319 
18:05	58.3	58.3	58.3	39	33.5	2	5	112	0.00	30.322 
18:10	58.3	58.3	58.3	39	33.5	2	9	112	0.00	30.323 
18:15	58.1	58.1	58.1	39	33.3	3	10	112	0.00	30.322 
18:20	58.0	58.0	58.0	39	33.2	3	7	90	0.00	30.322 
18:25	58.0	58.0	58.0	39	33.2	4	10	90	0.00	30.319 
18:30	57.8	57.8	57.8	40	33.6	4	11	90	0.00	30.313 
18:35	57.6	57.6	57.6	39	32.8	4	10	90	0.00	30.312 
18:40	57.5	57.5	57.5	42	34.6	3	8	112	0.00	30.315 
18:45	57.2	57.2	57.2	40	33.1	5	11	112	0.00	30.314 
18:50	57.0	57.0	57.0	39	32.3	4	11	112	0.00	30.316 
18:55	56.7	56.7	56.7	40	32.7	4	7	112	0.00	30.319 
19:00	56.5	56.5	56.5	41	33.1	4	8	90	0.00	30.319 
19:05	56.2	56.2	56.2	41	32.8	4	11	112	0.00	30.310 
19:10	55.9	55.9	55.9	42	33.1	4	9	112	0.00	30.314 
19:15	55.7	55.7	55.7	41	32.4	3	7	90	0.00	30.318 
19:20	55.4	55.4	55.4	40	31.5	4	9	90	0.00	30.314 
19:25	55.3	55.3	55.3	38	30.1	5	11	90	0.00	30.316 
19:30	55.0	55.0	55.0	39	30.5	4	10	90	0.00	30.315 
19:35	54.7	54.7	54.7	40	30.9	4	9	112	0.00	30.314 
19:40	54.2	54.2	54.2	41	31.0	4	9	112	0.00	30.310 
19:45	53.9	53.9	53.9	40	30.1	4	7	90	0.00	30.309 
19:50	53.6	53.6	53.6	41	30.5	4	10	90	0.00	30.310 
19:55	53.5	53.5	53.5	41	30.4	4	11	112	0.00	30.313 
20:00	53.3	53.3	53.3	40	29.6	5	10	112	0.00	30.315 
20:05	53.2	53.2	53.2	41	30.1	4	11	112	0.00	30.316 
20:10	52.9	52.9	52.9	43	31.0	3	8	90	0.00	30.317 
20:15	52.8	52.8	52.8	42	30.3	4	7	112	0.00	30.314 
20:20	52.6	52.6	52.6	42	30.2	5	10	90	0.00	30.313 
20:25	52.6	52.6	52.6	42	30.2	5	11	112	0.00	30.314 
20:30	52.5	52.5	52.5	43	30.7	6	14	112	0.00	30.314 
20:35	52.2	52.2	52.2	43	30.4	4	10	90	0.00	30.321 
20:40	51.9	51.9	51.9	45	31.2	4	10	90	0.00	30.323 
20:45	51.6	51.6	51.6	46	31.5	4	11	90	0.00	30.323 
20:50	51.3	51.3	51.3	47	31.8	5	10	90	0.00	30.322 
20:55	51.0	51.0	51.0	48	32.0	3	7	112	0.00	30.323 
21:00	50.7	50.7	50.7	48	31.7	3	6	90	0.00	30.326 
21:05	50.5	50.5	50.5	48	31.5	3	7	112	0.00	30.323 
21:10	50.4	50.4	50.4	48	31.5	4	9	90	0.00	30.329 
21:15	50.2	50.2	50.2	48	31.3	4	8	112	0.00	30.328 
21:20	50.1	50.1	50.1	48	31.2	3	8	112	0.00	30.331 
21:25	49.9	48.8	49.9	48	31.0	4	9	90	0.00	30.330 
21:30	49.8	48.6	49.8	48	30.9	4	11	90	0.00	30.334 
21:35	49.6	49.6	49.6	49	31.2	3	7	112	0.00	30.336 
21:40	49.4	49.4	49.4	50	31.5	3	7	112	0.00	30.338 
21:45	49.2	49.2	49.2	50	31.4	3	5	112	0.00	30.340 
21:50	48.9	48.9	48.9	50	31.1	3	6	112	0.00	30.338 
21:55	48.8	48.8	48.8	51	31.5	2	5	112	0.00	30.340 
22:00	48.6	48.6	48.6	51	31.3	2	6	90	0.00	30.347 
22:05	48.5	48.5	48.5	51	31.2	2	4	90	0.00	30.340 
22:10	48.3	48.3	48.3	51	31.0	1	3	90	0.00	30.342 
22:15	48.2	48.2	48.2	52	31.4	1	4	68	0.00	30.340 
22:20	47.9	47.9	47.9	52	31.1	2	4	90	0.00	30.339 
22:25	47.9	47.9	47.9	52	31.1	2	5	90	0.00	30.338 
22:30	47.7	47.7	47.7	53	31.4	1	3	68	0.00	30.337 
22:35	47.4	47.4	47.4	54	31.6	1	3	68	0.00	30.337 
22:40	47.3	47.3	47.3	54	31.5	1	2	90	0.00	30.333 
22:45	47.0	47.0	47.0	55	31.7	1	3	90	0.00	30.331 
22:50	47.0	47.0	47.0	54	31.2	2	4	90	0.00	30.329 
22:55	47.0	47.0	47.0	54	31.2	2	5	90	0.00	30.326 
23:00	47.0	47.0	47.0	55	31.7	2	6	90	0.00	30.327 
23:05	47.0	47.0	47.0	55	31.7	2	4	90	0.00	30.323 
23:10	47.0	47.0	47.0	56	32.1	3	5	90	0.00	30.321 
23:15	47.0	47.0	47.0	55	31.7	3	5	90	0.00	30.320 
23:20	47.1	47.1	47.1	56	32.2	3	5	90	0.00	30.315 
23:25	47.1	47.1	47.1	56	32.2	3	7	112	0.00	30.312 
23:30	47.0	47.0	47.0	57	32.6	3	6	112	0.00	30.307 
23:35	47.0	47.0	47.0	57	32.6	3	6	90	0.00	30.305 
23:40	46.8	46.8	46.8	58	32.8	3	6	112	0.00	30.304 
23:45	46.7	46.7	46.7	58	32.7	3	5	112	0.00	30.304 
23:50	46.5	46.5	46.5	58	32.5	3	12	90	0.00	30.305 
23:55	46.5	46.5	46.5	59	33.0	3	10	90	0.00	30.304 

CoCoRaHS
IN-AL-39
A2 Web Hosting
Creative Commons License
GoDaddy
Look for:

loaded 2017-12-12 07:34:18 • last modified 2010-11-18 10:43:29
Privacy PolicyDisclaimer
• wx.awcolley.com is powered by PmWiki v.2002016 •
• all content (unless otherwise noted) © 2017 A W Colley